Ark, Virginia
Current Conditions -  °F | °C
As of 4:35 AM on Thursday 23 Oct 2014 (Local Time) from KFYJ Reporting Station
Overcast Overcast  
Wind Chill: 55°   Ceiling: 3800
Heat Index: 55°   Visibility: 10mi
Dew Point: 42°   Wind: 12mph
Humidity: 62%   Direction: 310°NW
Pressure: 29.9"   Gusts: 17mph
Location:  37.44°N, 76.58°W
Report Text: KFYJ 230835Z AUTO 31010G15KT 280V340 10SM OVC038 13/06 A2990 RMK AO2 T01250055
Loading
Personal Weather Stations






























Interactive Weather Map New forecast layout! Learn more

10-Day Weather Forecast

Advertisements
Track Severe Weather on mobile